sensor_id;sensor_type;location;lat;lon;timestamp;pressure;altitude;pressure_sealevel;temperature;humidity
6425;BME280;12193;42.642;23.384;2023-01-24T00:01:56;95393.09;;;4.75;100.00
6425;BME280;12193;42.642;23.384;2023-01-24T00:04:26;95402.44;;;4.76;100.00
6425;BME280;12193;42.642;23.384;2023-01-24T00:06:55;95401.91;;;4.72;100.00
6425;BME280;12193;42.642;23.384;2023-01-24T00:09:24;95390.00;;;4.71;100.00
6425;BME280;12193;42.642;23.384;2023-01-24T00:11:56;95400.13;;;4.73;100.00
6425;BME280;12193;42.642;23.384;2023-01-24T00:14:26;95391.63;;;4.72;100.00
6425;BME280;12193;42.642;23.384;2023-01-24T00:16:55;95393.69;;;4.69;100.00
6425;BME280;12193;42.642;23.384;2023-01-24T00:19:24;95393.53;;;4.70;100.00
6425;BME280;12193;42.642;23.384;2023-01-24T00:21:53;95403.25;;;4.76;100.00
6425;BME280;12193;42.642;23.384;2023-01-24T00:24:22;95401.09;;;4.72;100.00
6425;BME280;12193;42.642;23.384;2023-01-24T00:26:52;95408.16;;;4.70;100.00
6425;BME280;12193;42.642;23.384;2023-01-24T00:29:24;95410.44;;;4.73;100.00
6425;BME280;12193;42.642;23.384;2023-01-24T00:31:53;95410.44;;;4.73;100.00
6425;BME280;12193;42.642;23.384;2023-01-24T00:34:23;95403.88;;;4.61;100.00
6425;BME280;12193;42.642;23.384;2023-01-24T00:36:52;95409.13;;;4.69;100.00
6425;BME280;12193;42.642;23.384;2023-01-24T00:39:21;95407.59;;;4.76;100.00
6425;BME280;12193;42.642;23.384;2023-01-24T00:41:51;95402.72;;;4.73;100.00
6425;BME280;12193;42.642;23.384;2023-01-24T00:44:20;95394.69;;;4.76;100.00
6425;BME280;12193;42.642;23.384;2023-01-24T00:46:53;95404.78;;;4.69;100.00
6425;BME280;12193;42.642;23.384;2023-01-24T00:49:23;95408.03;;;4.71;100.00
6425;BME280;12193;42.642;23.384;2023-01-24T00:51:52;95417.88;;;4.76;100.00
6425;BME280;12193;42.642;23.384;2023-01-24T00:54:21;95416.47;;;4.64;100.00
6425;BME280;12193;42.642;23.384;2023-01-24T00:56:51;95404.00;;;4.59;100.00
6425;BME280;12193;42.642;23.384;2023-01-24T00:59:20;95412.16;;;4.55;100.00
6425;BME280;12193;42.642;23.384;2023-01-24T01:01:50;95420.53;;;4.57;100.00
6425;BME280;12193;42.642;23.384;2023-01-24T01:04:22;95419.44;;;4.59;100.00
6425;BME280;12193;42.642;23.384;2023-01-24T01:06:51;95407.44;;;4.50;100.00
6425;BME280;12193;42.642;23.384;2023-01-24T04:08:49;95381.72;;;3.40;100.00
6425;BME280;12193;42.642;23.384;2023-01-24T04:11:19;95392.94;;;3.29;100.00
6425;BME280;12193;42.642;23.384;2023-01-24T04:13:49;95392.94;;;3.20;100.00
6425;BME280;12193;42.642;23.384;2023-01-24T04:16:18;95395.22;;;3.23;100.00
6425;BME280;12193;42.642;23.384;2023-01-24T04:18:47;95380.66;;;3.23;100.00
6425;BME280;12193;42.642;23.384;2023-01-24T04:21:17;95387.13;;;3.18;100.00
6425;BME280;12193;42.642;23.384;2023-01-24T04:23:49;95390.94;;;3.23;100.00
6425;BME280;12193;42.642;23.384;2023-01-24T04:26:18;95387.53;;;3.23;100.00
6425;BME280;12193;42.642;23.384;2023-01-24T04:28:48;95387.53;;;3.13;100.00
6425;BME280;12193;42.642;23.384;2023-01-24T04:31:17;95385.63;;;3.06;100.00
6425;BME280;12193;42.642;23.384;2023-01-24T04:33:46;95377.00;;;3.07;100.00
6425;BME280;12193;42.642;23.384;2023-01-24T04:36:15;95377.66;;;3.09;100.00
6425;BME280;12193;42.642;23.384;2023-01-24T04:38:44;95389.31;;;3.13;100.00
6425;BME280;12193;42.642;23.384;2023-01-24T04:41:17;95379.56;;;3.26;100.00
6425;BME280;12193;42.642;23.384;2023-01-24T04:43:46;95387.00;;;3.19;100.00
6425;BME280;12193;42.642;23.384;2023-01-24T04:46:15;95383.50;;;3.20;100.00
6425;BME280;12193;42.642;23.384;2023-01-24T04:48:45;95381.88;;;3.29;100.00
6425;BME280;12193;42.642;23.384;2023-01-24T04:51:14;95389.69;;;3.27;100.00
6425;BME280;12193;42.642;23.384;2023-01-24T04:53:44;95387.53;;;3.23;100.00
6425;BME280;12193;42.642;23.384;2023-01-24T04:56:15;95398.22;;;3.28;100.00
6425;BME280;12193;42.642;23.384;2023-01-24T04:58:45;95393.59;;;3.22;100.00
6425;BME280;12193;42.642;23.384;2023-01-24T05:01:14;95395.13;;;3.15;100.00
6425;BME280;12193;42.642;23.384;2023-01-24T05:03:43;95394.97;;;3.07;100.00
6425;BME280;12193;42.642;23.384;2023-01-24T05:06:13;95395.50;;;3.10;100.00
6425;BME280;12193;42.642;23.384;2023-01-24T05:08:42;95399.69;;;3.02;100.00
6425;BME280;12193;42.642;23.384;2023-01-24T05:11:12;95397.69;;;3.06;100.00
6425;BME280;12193;42.642;23.384;2023-01-24T05:13:44;95396.44;;;3.00;100.00
6425;BME280;12193;42.642;23.384;2023-01-24T05:16:13;95409.84;;;3.04;100.00
6425;BME280;12193;42.642;23.384;2023-01-24T05:18:42;95411.16;;;3.07;100.00
6425;BME280;12193;42.642;23.384;2023-01-24T05:21:13;95419.53;;;3.00;100.00
6425;BME280;12193;42.642;23.384;2023-01-24T05:23:48;95416.59;;;3.05;100.00
6425;BME280;12193;42.642;23.384;2023-01-24T05:26:17;95429.03;;;3.09;100.00
6425;BME280;12193;42.642;23.384;2023-01-24T05:28:50;95433.63;;;3.06;100.00
6425;BME280;12193;42.642;23.384;2023-01-24T05:31:20;95435.22;;;3.06;100.00
6425;BME280;12193;42.642;23.384;2023-01-24T05:33:50;95446.59;;;3.13;100.00
6425;BME280;12193;42.642;23.384;2023-01-24T05:36:20;95440.94;;;3.10;100.00
6425;BME280;12193;42.642;23.384;2023-01-24T05:38:50;95435.81;;;3.19;100.00
6425;BME280;12193;42.642;23.384;2023-01-24T05:41:20;95430.09;;;3.16;100.00
6425;BME280;12193;42.642;23.384;2023-01-24T05:43:52;95443.50;;;3.10;100.00
6425;BME280;12193;42.642;23.384;2023-01-24T05:46:22;95448.06;;;3.06;100.00
6425;BME280;12193;42.642;23.384;2023-01-24T05:48:52;95454.44;;;3.12;100.00
6425;BME280;12193;42.642;23.384;2023-01-24T05:51:21;95455.13;;;3.05;100.00
6425;BME280;12193;42.642;23.384;2023-01-24T05:53:50;95455.94;;;3.14;100.00
6425;BME280;12193;42.642;23.384;2023-01-24T05:56:20;95451.72;;;3.13;100.00
6425;BME280;12193;42.642;23.384;2023-01-24T05:58:52;95465.25;;;3.15;100.00
6425;BME280;12193;42.642;23.384;2023-01-24T06:01:22;95461.06;;;3.24;100.00
6425;BME280;12193;42.642;23.384;2023-01-24T06:03:52;95468.66;;;3.25;100.00
6425;BME280;12193;42.642;23.384;2023-01-24T06:06:23;95466.69;;;2.99;100.00
6425;BME280;12193;42.642;23.384;2023-01-24T06:08:53;95483.47;;;3.03;100.00
6425;BME280;12193;42.642;23.384;2023-01-24T06:11:24;95469.41;;;2.98;100.00
6425;BME280;12193;42.642;23.384;2023-01-24T06:13:57;95479.06;;;2.75;100.00
6425;BME280;12193;42.642;23.384;2023-01-24T06:16:27;95478.72;;;2.59;100.00
6425;BME280;12193;42.642;23.384;2023-01-24T06:18:57;95479.38;;;2.52;100.00
6425;BME280;12193;42.642;23.384;2023-01-24T06:21:40;95479.78;;;2.47;100.00
6425;BME280;12193;42.642;23.384;2023-01-24T06:24:16;95494.97;;;2.39;100.00
6425;BME280;12193;42.642;23.384;2023-01-24T06:26:47;95485.78;;;2.37;100.00
6425;BME280;12193;42.642;23.384;2023-01-24T06:29:20;95491.31;;;2.32;100.00
6425;BME280;12193;42.642;23.384;2023-01-24T06:31:58;95501.56;;;2.32;100.00
6425;BME280;12193;42.642;23.384;2023-01-24T06:34:50;95491.47;;;2.40;100.00
6425;BME280;12193;42.642;23.384;2023-01-24T06:37:29;95496.34;;;2.43;100.00
6425;BME280;12193;42.642;23.384;2023-01-24T06:40:06;95501.72;;;2.40;100.00
6425;BME280;12193;42.642;23.384;2023-01-24T06:42:37;95494.47;;;2.45;100.00
6425;BME280;12193;42.642;23.384;2023-01-24T06:45:10;95506.75;;;2.42;100.00
6425;BME280;12193;42.642;23.384;2023-01-24T06:47:39;95498.06;;;2.33;100.00
6425;BME280;12193;42.642;23.384;2023-01-24T06:50:12;95507.00;;;2.39;100.00
6425;BME280;12193;42.642;23.384;2023-01-24T06:52:44;95507.25;;;2.36;100.00
6425;BME280;12193;42.642;23.384;2023-01-24T06:55:15;95506.81;;;2.31;100.00
6425;BME280;12193;42.642;23.384;2023-01-24T06:57:44;95510.06;;;2.33;100.00
6425;BME280;12193;42.642;23.384;2023-01-24T07:00:18;95507.41;;;2.34;100.00
6425;BME280;12193;42.642;23.384;2023-01-24T07:02:47;95511.41;;;2.27;100.00
6425;BME280;12193;42.642;23.384;2023-01-24T07:05:16;95508.59;;;2.30;100.00
6425;BME280;12193;42.642;23.384;2023-01-24T07:07:45;95516.88;;;2.43;100.00
6425;BME280;12193;42.642;23.384;2023-01-24T07:10:15;95523.94;;;2.51;100.00
6425;BME280;12193;42.642;23.384;2023-01-24T07:12:45;95522.25;;;2.40;100.00
6425;BME280;12193;42.642;23.384;2023-01-24T07:15:17;95520.78;;;2.38;100.00
6425;BME280;12193;42.642;23.384;2023-01-24T07:17:47;95526.16;;;2.35;100.00
6425;BME280;12193;42.642;23.384;2023-01-24T07:20:18;95535.91;;;2.41;100.00
6425;BME280;12193;42.642;23.384;2023-01-24T07:22:48;95541.16;;;2.39;100.00
6425;BME280;12193;42.642;23.384;2023-01-24T07:25:19;95533.66;;;2.47;100.00
6425;BME280;12193;42.642;23.384;2023-01-24T07:27:50;95523.63;;;2.44;100.00
6425;BME280;12193;42.642;23.384;2023-01-24T07:30:22;95534.34;;;2.29;100.00
6425;BME280;12193;42.642;23.384;2023-01-24T07:32:51;95539.47;;;2.29;100.00
6425;BME280;12193;42.642;23.384;2023-01-24T07:35:20;95534.34;;;2.29;100.00
6425;BME280;12193;42.642;23.384;2023-01-24T07:37:50;95537.53;;;2.21;100.00
6425;BME280;12193;42.642;23.384;2023-01-24T07:40:19;95540.00;;;2.23;100.00
6425;BME280;12193;42.642;23.384;2023-01-24T07:42:48;95549.66;;;2.19;100.00
6425;BME280;12193;42.642;23.384;2023-01-24T07:45:17;95553.53;;;2.14;100.00
6425;BME280;12193;42.642;23.384;2023-01-24T07:47:54;95549.03;;;2.27;100.00
6425;BME280;12193;42.642;23.384;2023-01-24T07:50:23;95562.25;;;2.22;100.00
6425;BME280;12193;42.642;23.384;2023-01-24T07:52:53;95555.25;;;2.24;100.00
6425;BME280;12193;42.642;23.384;2023-01-24T07:55:23;95558.50;;;2.26;100.00
6425;BME280;12193;42.642;23.384;2023-01-24T07:57:57;95565.50;;;2.24;100.00
6425;BME280;12193;42.642;23.384;2023-01-24T08:00:28;95560.38;;;2.24;100.00
6425;BME280;12193;42.642;23.384;2023-01-24T08:03:00;95568.31;;;2.21;100.00
6425;BME280;12193;42.642;23.384;2023-01-24T08:05:30;95574.97;;;2.24;100.00
6425;BME280;12193;42.642;23.384;2023-01-24T08:07:59;95574.44;;;2.30;100.00
6425;BME280;12193;42.642;23.384;2023-01-24T08:10:28;95573.63;;;2.29;100.00
6425;BME280;12193;42.642;23.384;2023-01-24T08:12:58;95561.16;;;2.25;100.00
6425;BME280;12193;42.642;23.384;2023-01-24T08:15:27;95572.63;;;2.21;100.00
6425;BME280;12193;42.642;23.384;2023-01-24T08:17:59;95563.31;;;2.20;100.00
6425;BME280;12193;42.642;23.384;2023-01-24T08:20:29;95572.63;;;2.21;100.00
6425;BME280;12193;42.642;23.384;2023-01-24T08:22:59;95571.28;;;2.06;100.00
6425;BME280;12193;42.642;23.384;2023-01-24T08:25:29;95571.22;;;1.97;100.00
6425;BME280;12193;42.642;23.384;2023-01-24T08:28:00;95580.91;;;1.93;100.00
6425;BME280;12193;42.642;23.384;2023-01-24T08:30:29;95574.59;;;1.97;100.00
6425;BME280;12193;42.642;23.384;2023-01-24T08:33:03;95573.69;;;1.98;100.00
6425;BME280;12193;42.642;23.384;2023-01-24T08:35:33;95578.19;;;2.05;100.00
6425;BME280;12193;42.642;23.384;2023-01-24T08:38:02;95575.81;;;2.13;100.00
6425;BME280;12193;42.642;23.384;2023-01-24T08:40:32;95569.31;;;2.09;100.00
6425;BME280;12193;42.642;23.384;2023-01-24T08:43:01;95571.13;;;2.18;100.00
6425;BME280;12193;42.642;23.384;2023-01-24T08:45:30;95573.91;;;2.15;100.00
6425;BME280;12193;42.642;23.384;2023-01-24T08:48:03;95585.06;;;2.25;100.00
6425;BME280;12193;42.642;23.384;2023-01-24T08:50:32;95581.81;;;2.23;100.00
6425;BME280;12193;42.642;23.384;2023-01-24T08:53:01;95572.88;;;2.18;100.00
6425;BME280;12193;42.642;23.384;2023-01-24T08:55:30;95568.00;;;2.15;100.00
6425;BME280;12193;42.642;23.384;2023-01-24T08:58:00;95580.13;;;2.13;100.00
6425;BME280;12193;42.642;23.384;2023-01-24T09:00:30;95574.25;;;2.22;100.00
6425;BME280;12193;42.642;23.384;2023-01-24T09:03:02;95576.00;;;2.21;100.00
6425;BME280;12193;42.642;23.384;2023-01-24T09:05:31;95574.13;;;2.23;100.00
6425;BME280;12193;42.642;23.384;2023-01-24T09:08:02;95569.31;;;2.30;100.00
6425;BME280;12193;42.642;23.384;2023-01-24T09:10:32;95575.19;;;2.21;100.00
6425;BME280;12193;42.642;23.384;2023-01-24T09:13:01;95571.69;;;2.22;100.00
6425;BME280;12193;42.642;23.384;2023-01-24T09:15:32;95571.19;;;2.28;100.00
6425;BME280;12193;42.642;23.384;2023-01-24T09:18:04;95568.94;;;2.34;100.00
6425;BME280;12193;42.642;23.384;2023-01-24T09:20:33;95571.53;;;2.34;100.00
6425;BME280;12193;42.642;23.384;2023-01-24T09:23:07;95574.19;;;2.33;100.00
6425;BME280;12193;42.642;23.384;2023-01-24T09:25:38;95561.91;;;2.36;100.00
6425;BME280;12193;42.642;23.384;2023-01-24T09:28:07;95568.56;;;2.39;100.00
6425;BME280;12193;42.642;23.384;2023-01-24T09:30:37;95573.25;;;2.54;100.00
6425;BME280;12193;42.642;23.384;2023-01-24T09:33:09;95568.59;;;2.69;100.00
6425;BME280;12193;42.642;23.384;2023-01-24T09:35:38;95560.97;;;2.58;100.00
6425;BME280;12193;42.642;23.384;2023-01-24T09:38:07;95561.50;;;2.82;100.00
6425;BME280;12193;42.642;23.384;2023-01-24T09:40:43;95563.16;;;2.62;100.00
6425;BME280;12193;42.642;23.384;2023-01-24T09:43:24;95559.16;;;2.69;100.00
6425;BME280;12193;42.642;23.384;2023-01-24T09:46:04;95567.00;;;2.47;100.00
6425;BME280;12193;42.642;23.384;2023-01-24T09:48:38;95560.63;;;2.21;100.00
6425;BME280;12193;42.642;23.384;2023-01-24T09:51:13;95563.69;;;2.36;100.00
6425;BME280;12193;42.642;23.384;2023-01-24T09:53:46;95552.03;;;2.52;100.00
6425;BME280;12193;42.642;23.384;2023-01-24T09:56:20;95562.09;;;2.65;100.00
6425;BME280;12193;42.642;23.384;2023-01-24T09:59:01;95558.16;;;2.40;100.00
6425;BME280;12193;42.642;23.384;2023-01-24T10:01:36;95561.50;;;2.31;100.00
6425;BME280;12193;42.642;23.384;2023-01-24T10:04:31;95555.97;;;2.15;100.00
6425;BME280;12193;42.642;23.384;2023-01-24T10:10:04;95561.00;;;2.17;100.00
6425;BME280;12193;42.642;23.384;2023-01-24T10:12:43;95558.22;;;2.09;100.00
6425;BME280;12193;42.642;23.384;2023-01-24T10:15:29;95559.94;;;1.88;100.00
6425;BME280;12193;42.642;23.384;2023-01-24T10:21:33;95556.41;;;2.00;100.00
6425;BME280;12193;42.642;23.384;2023-01-24T10:24:13;95556.13;;;1.83;100.00
6425;BME280;12193;42.642;23.384;2023-01-24T10:26:47;95550.38;;;1.70;100.00
6425;BME280;12193;42.642;23.384;2023-01-24T10:29:19;95538.59;;;1.67;100.00
6425;BME280;12193;42.642;23.384;2023-01-24T10:31:55;95538.84;;;1.64;100.00
6425;BME280;12193;42.642;23.384;2023-01-24T10:34:31;95546.19;;;1.69;100.00
6425;BME280;12193;42.642;23.384;2023-01-24T10:37:06;95539.66;;;1.65;100.00
6425;BME280;12193;42.642;23.384;2023-01-24T10:39:43;95529.19;;;1.68;100.00
6425;BME280;12193;42.642;23.384;2023-01-24T10:42:18;95535.88;;;1.80;100.00
6425;BME280;12193;42.642;23.384;2023-01-24T10:44:51;95532.13;;;1.84;100.00
6425;BME280;12193;42.642;23.384;2023-01-24T10:47:44;95528.47;;;1.97;100.00
6425;BME280;12193;42.642;23.384;2023-01-24T10:50:16;95530.25;;;1.86;100.00
6425;BME280;12193;42.642;23.384;2023-01-24T10:52:48;95514.66;;;2.29;100.00
6425;BME280;12193;42.642;23.384;2023-01-24T10:55:31;95529.22;;;2.08;100.00
6425;BME280;12193;42.642;23.384;2023-01-24T10:58:14;95525.88;;;2.17;100.00
6425;BME280;12193;42.642;23.384;2023-01-24T11:00:46;95528.41;;;2.08;100.00
6425;BME280;12193;42.642;23.384;2023-01-24T11:03:27;95530.59;;;1.92;100.00
6425;BME280;12193;42.642;23.384;2023-01-24T11:05:57;95515.81;;;1.85;100.00
6425;BME280;12193;42.642;23.384;2023-01-24T11:08:32;95513.41;;;1.83;100.00
6425;BME280;12193;42.642;23.384;2023-01-24T11:11:15;95516.31;;;1.79;100.00
6425;BME280;12193;42.642;23.384;2023-01-24T11:13:46;95521.19;;;1.82;100.00
6425;BME280;12193;42.642;23.384;2023-01-24T11:16:21;95518.94;;;1.88;100.00
6425;BME280;12193;42.642;23.384;2023-01-24T11:18:56;95510.31;;;1.89;100.00
6425;BME280;12193;42.642;23.384;2023-01-24T11:21:28;95510.25;;;1.80;100.00
6425;BME280;12193;42.642;23.384;2023-01-24T11:24:12;95503.16;;;1.83;100.00
6425;BME280;12193;42.642;23.384;2023-01-24T11:26:57;95494.50;;;1.84;100.00
6425;BME280;12193;42.642;23.384;2023-01-24T11:29:27;95500.94;;;1.79;100.00
6425;BME280;12193;42.642;23.384;2023-01-24T11:32:05;95500.63;;;1.72;100.00
6425;BME280;12193;42.642;23.384;2023-01-24T11:34:51;95497.91;;;1.74;100.00
6425;BME280;12193;42.642;23.384;2023-01-24T11:40:31;95495.38;;;1.94;100.00
6425;BME280;12193;42.642;23.384;2023-01-24T11:43:15;95492.28;;;1.91;100.00
6425;BME280;12193;42.642;23.384;2023-01-24T11:45:59;95482.81;;;1.91;100.00
6425;BME280;12193;42.642;23.384;2023-01-24T11:48:40;95489.47;;;1.94;100.00
6425;BME280;12193;42.642;23.384;2023-01-24T11:51:17;95489.19;;;1.97;100.00
6425;BME280;12193;42.642;23.384;2023-01-24T11:54:09;95483.69;;;1.81;100.00
6425;BME280;12193;42.642;23.384;2023-01-24T11:56:52;95484.84;;;1.88;100.00
6425;BME280;12193;42.642;23.384;2023-01-24T11:59:36;95485.94;;;1.95;100.00
6425;BME280;12193;42.642;23.384;2023-01-24T12:02:41;95478.81;;;1.98;100.00
6425;BME280;12193;42.642;23.384;2023-01-24T12:05:25;95485.56;;;2.19;100.00
6425;BME280;12193;42.642;23.384;2023-01-24T12:08:09;95484.94;;;2.06;100.00
6425;BME280;12193;42.642;23.384;2023-01-24T12:10:52;95485.44;;;2.01;100.00
6425;BME280;12193;42.642;23.384;2023-01-24T12:13:30;95500.97;;;1.99;100.00
6425;BME280;12193;42.642;23.384;2023-01-24T12:16:11;95502.13;;;2.15;100.00
6425;BME280;12193;42.642;23.384;2023-01-24T12:18:52;95502.06;;;2.26;100.00
6425;BME280;12193;42.642;23.384;2023-01-24T12:21:25;95500.00;;;2.20;100.00
6425;BME280;12193;42.642;23.384;2023-01-24T12:24:00;95494.81;;;2.31;100.00
6425;BME280;12193;42.642;23.384;2023-01-24T12:26:35;95490.78;;;2.08;100.00
6425;BME280;12193;42.642;23.384;2023-01-24T12:29:12;95487.81;;;2.13;100.00
6425;BME280;12193;42.642;23.384;2023-01-24T12:31:47;95499.56;;;1.95;100.00
6425;BME280;12193;42.642;23.384;2023-01-24T12:34:37;95495.59;;;2.02;100.00
6425;BME280;12193;42.642;23.384;2023-01-24T12:37:12;95500.50;;;1.94;100.00
6425;BME280;12193;42.642;23.384;2023-01-24T12:39:46;95499.34;;;1.98;100.00
6425;BME280;12193;42.642;23.384;2023-01-24T12:42:24;95502.91;;;2.06;100.00
6425;BME280;12193;42.642;23.384;2023-01-24T12:45:05;95486.25;;;2.21;100.00
6425;BME280;12193;42.642;23.384;2023-01-24T12:47:42;95503.66;;;2.18;100.00
6425;BME280;12193;42.642;23.384;2023-01-24T12:50:20;95498.09;;;1.93;100.00
6425;BME280;12193;42.642;23.384;2023-01-24T12:53:00;95503.69;;;2.07;100.00
6425;BME280;12193;42.642;23.384;2023-01-24T12:55:36;95501.44;;;1.93;100.00
6425;BME280;12193;42.642;23.384;2023-01-24T12:58:13;95496.53;;;2.01;100.00
6425;BME280;12193;42.642;23.384;2023-01-24T13:00:57;95497.22;;;2.03;100.00
6425;BME280;12193;42.642;23.384;2023-01-24T13:03:50;95495.31;;;2.05;100.00
6425;BME280;12193;42.642;23.384;2023-01-24T13:06:31;95493.56;;;2.26;100.00
6425;BME280;12193;42.642;23.384;2023-01-24T13:09:13;95496.59;;;2.61;100.00
6425;BME280;12193;42.642;23.384;2023-01-24T13:11:48;95499.50;;;2.56;100.00
6425;BME280;12193;42.642;23.384;2023-01-24T13:14:21;95489.84;;;2.39;100.00
6425;BME280;12193;42.642;23.384;2023-01-24T13:17:08;95491.47;;;2.40;100.00
6425;BME280;12193;42.642;23.384;2023-01-24T13:20:22;95491.03;;;2.35;100.00
6425;BME280;12193;42.642;23.384;2023-01-24T13:23:24;95503.25;;;2.43;100.00
6425;BME280;12193;42.642;23.384;2023-01-24T13:26:11;95502.72;;;2.49;100.00
6425;BME280;12193;42.642;23.384;2023-01-24T13:28:51;95504.53;;;2.58;100.00
6425;BME280;12193;42.642;23.384;2023-01-24T13:31:28;95499.22;;;2.50;100.00
6425;BME280;12193;42.642;23.384;2023-01-24T13:34:04;95499.13;;;2.31;100.00
6425;BME280;12193;42.642;23.384;2023-01-24T13:36:36;95497.06;;;2.25;100.00
6425;BME280;12193;42.642;23.384;2023-01-24T13:39:28;95502.22;;;2.55;100.00
6425;BME280;12193;42.642;23.384;2023-01-24T13:42:04;95493.09;;;2.41;100.00
6425;BME280;12193;42.642;23.384;2023-01-24T13:44:34;95506.63;;;2.43;100.00
6425;BME280;12193;42.642;23.384;2023-01-24T13:50:16;95511.28;;;2.59;100.00
6425;BME280;12193;42.642;23.384;2023-01-24T13:52:47;95507.53;;;2.63;100.00
6425;BME280;12193;42.642;23.384;2023-01-24T13:58:33;95523.44;;;2.57;100.00
6425;BME280;12193;42.642;23.384;2023-01-24T14:01:03;95507.56;;;2.42;100.00
6425;BME280;12193;42.642;23.384;2023-01-24T14:03:35;95525.41;;;2.44;100.00
6425;BME280;12193;42.642;23.384;2023-01-24T14:06:14;95522.03;;;2.23;100.00
6425;BME280;12193;42.642;23.384;2023-01-24T14:08:47;95512.88;;;2.30;100.00
6425;BME280;12193;42.642;23.384;2023-01-24T14:11:30;95516.78;;;2.24;100.00
6425;BME280;12193;42.642;23.384;2023-01-24T14:14:26;95507.06;;;2.28;100.00
6425;BME280;12193;42.642;23.384;2023-01-24T14:17:27;95510.66;;;2.16;100.00
6425;BME280;12193;42.642;23.384;2023-01-24T14:19:57;95513.06;;;2.17;100.00
6425;BME280;12193;42.642;23.384;2023-01-24T14:22:37;95507.25;;;2.36;100.00
6425;BME280;12193;42.642;23.384;2023-01-24T14:25:27;95515.94;;;2.44;100.00
6425;BME280;12193;42.642;23.384;2023-01-24T14:28:00;95513.50;;;2.43;100.00
6425;BME280;12193;42.642;23.384;2023-01-24T14:30:34;95512.25;;;2.37;100.00
6425;BME280;12193;42.642;23.384;2023-01-24T14:33:16;95508.09;;;2.46;100.00
6425;BME280;12193;42.642;23.384;2023-01-24T14:35:58;95515.97;;;2.24;100.00
6425;BME280;12193;42.642;23.384;2023-01-24T14:38:30;95520.34;;;2.12;100.00
6425;BME280;12193;42.642;23.384;2023-01-24T14:41:00;95516.03;;;2.13;100.00
6425;BME280;12193;42.642;23.384;2023-01-24T14:43:34;95511.28;;;2.08;100.00
6425;BME280;12193;42.642;23.384;2023-01-24T14:46:12;95516.47;;;2.18;100.00
6425;BME280;12193;42.642;23.384;2023-01-24T14:48:46;95524.66;;;2.12;100.00
6425;BME280;12193;42.642;23.384;2023-01-24T14:51:17;95527.53;;;1.98;100.00
6425;BME280;12193;42.642;23.384;2023-01-24T14:53:50;95519.25;;;1.95;100.00
6425;BME280;12193;42.642;23.384;2023-01-24T14:56:20;95521.34;;;2.01;100.00
6425;BME280;12193;42.642;23.384;2023-01-24T14:58:50;95517.03;;;2.01;100.00
6425;BME280;12193;42.642;23.384;2023-01-24T15:01:24;95521.19;;;1.82;100.00
6425;BME280;12193;42.642;23.384;2023-01-24T15:03:55;95523.91;;;1.80;100.00
6425;BME280;12193;42.642;23.384;2023-01-24T15:06:25;95535.41;;;1.86;100.00
6425;BME280;12193;42.642;23.384;2023-01-24T15:08:59;95527.31;;;1.90;100.00
6425;BME280;12193;42.642;23.384;2023-01-24T15:11:32;95532.84;;;1.86;100.00
6425;BME280;12193;42.642;23.384;2023-01-24T15:14:05;95537.47;;;1.92;100.00
6425;BME280;12193;42.642;23.384;2023-01-24T15:16:37;95534.94;;;1.81;100.00
6425;BME280;12193;42.642;23.384;2023-01-24T15:19:13;95535.63;;;1.83;100.00
6425;BME280;12193;42.642;23.384;2023-01-24T15:21:46;95538.28;;;1.92;100.00
6425;BME280;12193;42.642;23.384;2023-01-24T15:24:24;95540.97;;;1.91;100.00
6425;BME280;12193;42.642;23.384;2023-01-24T15:26:54;95537.72;;;1.89;100.00
6425;BME280;12193;42.642;23.384;2023-01-24T15:29:48;95539.66;;;1.96;100.00
6425;BME280;12193;42.642;23.384;2023-01-24T15:32:26;95538.56;;;1.78;100.00
6425;BME280;12193;42.642;23.384;2023-01-24T15:38:13;95540.69;;;1.73;100.00
6425;BME280;12193;42.642;23.384;2023-01-24T15:40:51;95541.63;;;1.72;100.00
6425;BME280;12193;42.642;23.384;2023-01-24T15:43:25;95535.78;;;1.81;100.00
6425;BME280;12193;42.642;23.384;2023-01-24T15:46:17;95545.50;;;1.67;100.00
6425;BME280;12193;42.642;23.384;2023-01-24T15:49:00;95543.84;;;1.66;100.00
6425;BME280;12193;42.642;23.384;2023-01-24T15:51:33;95550.47;;;1.68;100.00
6425;BME280;12193;42.642;23.384;2023-01-24T15:54:08;95553.41;;;1.64;100.00
6425;BME280;12193;42.642;23.384;2023-01-24T15:56:42;95548.94;;;1.77;100.00
6425;BME280;12193;42.642;23.384;2023-01-24T15:59:15;95553.88;;;1.69;100.00
6425;BME280;12193;42.642;23.384;2023-01-24T16:01:45;95545.25;;;1.70;100.00
6425;BME280;12193;42.642;23.384;2023-01-24T16:04:16;95556.66;;;1.66;100.00
6425;BME280;12193;42.642;23.384;2023-01-24T16:06:46;95555.00;;;1.76;100.00
6425;BME280;12193;42.642;23.384;2023-01-24T16:09:15;95552.63;;;1.84;100.00
6425;BME280;12193;42.642;23.384;2023-01-24T16:11:48;95555.97;;;1.95;100.00
6425;BME280;12193;42.642;23.384;2023-01-24T16:14:20;95553.19;;;1.87;100.00
6425;BME280;12193;42.642;23.384;2023-01-24T16:16:53;95547.97;;;1.89;100.00
6425;BME280;12193;42.642;23.384;2023-01-24T16:19:23;95556.34;;;1.91;100.00
6425;BME280;12193;42.642;23.384;2023-01-24T16:21:52;95556.78;;;1.96;100.00
6425;BME280;12193;42.642;23.384;2023-01-24T16:24:21;95555.72;;;1.98;100.00
6425;BME280;12193;42.642;23.384;2023-01-24T16:26:54;95562.03;;;1.94;100.00
6425;BME280;12193;42.642;23.384;2023-01-24T16:29:28;95562.41;;;1.90;100.00
6425;BME280;12193;42.642;23.384;2023-01-24T16:31:58;95557.91;;;1.82;100.00
6425;BME280;12193;42.642;23.384;2023-01-24T16:34:28;95563.38;;;1.78;100.00
6425;BME280;12193;42.642;23.384;2023-01-24T16:36:58;95564.81;;;1.71;100.00
6425;BME280;12193;42.642;23.384;2023-01-24T16:39:27;95562.72;;;1.65;100.00
6425;BME280;12193;42.642;23.384;2023-01-24T16:42:02;95563.28;;;1.68;100.00
6425;BME280;12193;42.642;23.384;2023-01-24T16:44:31;95569.09;;;1.70;100.00
6425;BME280;12193;42.642;23.384;2023-01-24T16:47:01;95567.00;;;1.75;100.00
6425;BME280;12193;42.642;23.384;2023-01-24T16:49:31;95574.31;;;1.80;100.00
6425;BME280;12193;42.642;23.384;2023-01-24T16:52:00;95572.69;;;1.79;100.00
6425;BME280;12193;42.642;23.384;2023-01-24T16:54:31;95574.13;;;1.72;100.00